createdAt,value
2023-12-29T00:00:44.398Z,6.54
2023-12-29T00:03:32.694Z,6.58
2023-12-29T00:06:03.916Z,6.57
2023-12-29T00:08:32.829Z,6.57
2023-12-29T00:11:00.922Z,6.58
2023-12-29T00:13:28.962Z,6.61
2023-12-29T00:15:57.184Z,6.63
2023-12-29T00:18:25.913Z,6.65
2023-12-29T00:21:06.090Z,6.69
2023-12-29T00:23:35.885Z,6.71
2023-12-29T00:26:04.105Z,6.68
2023-12-29T00:28:32.321Z,6.67
2023-12-29T00:31:02.639Z,6.68
2023-12-29T00:33:33.353Z,6.70
2023-12-29T00:36:01.488Z,6.70
2023-12-29T00:38:30.502Z,6.70
2023-12-29T00:40:58.609Z,6.72
2023-12-29T00:43:26.739Z,6.75
2023-12-29T00:45:55.509Z,6.74
2023-12-29T00:48:23.739Z,6.74
2023-12-29T00:50:51.868Z,6.75
2023-12-29T00:53:19.985Z,6.74
2023-12-29T00:55:48.133Z,6.71
2023-12-29T00:58:16.387Z,6.71
2023-12-29T01:00:44.791Z,6.70
2023-12-29T01:03:13.021Z,6.69
2023-12-29T01:05:41.489Z,6.67
2023-12-29T01:08:09.712Z,6.65
2023-12-29T01:10:37.933Z,6.62
2023-12-29T01:13:06.058Z,6.60
2023-12-29T01:15:34.238Z,6.61
2023-12-29T01:18:02.571Z,6.59
2023-12-29T01:20:30.876Z,6.56
2023-12-29T01:22:58.960Z,6.53
2023-12-29T01:25:27.113Z,6.50
2023-12-29T01:27:56.547Z,6.48
2023-12-29T01:30:24.744Z,6.44
2023-12-29T01:32:52.959Z,6.39
2023-12-29T01:35:21.163Z,6.34
2023-12-29T01:37:49.304Z,6.32
2023-12-29T01:40:18.537Z,6.29
2023-12-29T01:42:46.804Z,6.24
2023-12-29T01:45:23.324Z,6.20
2023-12-29T01:47:52.240Z,6.16
2023-12-29T01:52:11.519Z,6.13
2023-12-29T01:54:42.097Z,6.07
2023-12-29T01:57:10.231Z,6.01
2023-12-29T01:59:39.346Z,6.00
2023-12-29T02:02:08.025Z,5.97
2023-12-29T02:04:41.064Z,5.93
2023-12-29T02:07:09.285Z,5.88
2023-12-29T02:09:37.515Z,5.84
2023-12-29T02:12:06.492Z,5.81
2023-12-29T02:14:34.827Z,5.78
2023-12-29T02:17:18.755Z,5.73
2023-12-29T02:19:48.374Z,5.65
2023-12-29T02:22:16.917Z,5.59
2023-12-29T02:24:47.441Z,5.56
2023-12-29T02:27:34.733Z,5.54
2023-12-29T02:30:11.865Z,5.51
2023-12-29T02:32:43.349Z,5.48
2023-12-29T02:35:23.433Z,5.45
2023-12-29T02:37:51.530Z,5.45
2023-12-29T02:40:19.763Z,5.46
2023-12-29T02:42:51.008Z,5.44
2023-12-29T02:45:19.429Z,5.45
2023-12-29T02:47:47.720Z,5.46
2023-12-29T02:50:16.882Z,5.46
2023-12-29T02:52:45.028Z,5.45
2023-12-29T02:55:13.180Z,5.44
2023-12-29T02:57:41.421Z,5.41
2023-12-29T03:00:09.817Z,5.37
2023-12-29T03:02:38.006Z,5.35
2023-12-29T03:05:07.370Z,5.33
2023-12-29T03:07:36.328Z,5.31
2023-12-29T03:10:04.804Z,5.29
2023-12-29T03:12:32.956Z,5.25
2023-12-29T03:15:01.846Z,5.21
2023-12-29T03:17:29.965Z,5.19
2023-12-29T03:19:58.177Z,5.17
2023-12-29T03:22:26.314Z,5.16
2023-12-29T03:24:54.530Z,5.15
2023-12-29T03:27:22.717Z,5.13
2023-12-29T03:29:50.817Z,5.10
2023-12-29T03:32:19.250Z,5.09
2023-12-29T03:34:47.440Z,5.08
2023-12-29T03:37:15.677Z,5.09
2023-12-29T03:39:43.953Z,5.07
2023-12-29T03:42:12.961Z,5.08
2023-12-29T03:44:41.089Z,5.07
2023-12-29T03:47:11.916Z,5.06
2023-12-29T03:49:40.095Z,5.05
2023-12-29T03:52:08.212Z,5.04
2023-12-29T03:54:36.816Z,5.04
2023-12-29T03:57:05.172Z,5.03
2023-12-29T03:59:33.258Z,5.02
2023-12-29T04:02:01.416Z,5.01
2023-12-29T04:04:29.551Z,4.98
2023-12-29T04:06:57.709Z,4.95
2023-12-29T04:09:25.760Z,4.94
2023-12-29T04:11:54.016Z,4.92
2023-12-29T04:14:22.083Z,4.92
2023-12-29T04:16:50.511Z,4.94
2023-12-29T04:19:18.710Z,4.96
2023-12-29T04:21:46.918Z,4.94
2023-12-29T04:24:15.361Z,4.92
2023-12-29T04:26:43.817Z,4.91
2023-12-29T04:29:14.016Z,4.90
2023-12-29T04:31:42.818Z,4.88
2023-12-29T04:34:10.943Z,4.88
2023-12-29T04:36:39.086Z,4.88
2023-12-29T04:39:10.148Z,4.87
2023-12-29T04:41:38.291Z,4.86
2023-12-29T04:44:06.413Z,4.89
2023-12-29T04:46:34.889Z,4.90
2023-12-29T04:49:03.781Z,4.92
2023-12-29T04:51:32.209Z,4.96
2023-12-29T04:54:00.324Z,5.04
2023-12-29T04:56:28.422Z,5.11
2023-12-29T04:58:57.856Z,5.14
2023-12-29T05:01:26.132Z,5.21
2023-12-29T05:03:54.335Z,5.30
2023-12-29T05:06:22.450Z,5.38
2023-12-29T05:08:50.517Z,5.46
2023-12-29T05:11:18.617Z,5.52
2023-12-29T05:13:46.900Z,5.59
2023-12-29T05:16:14.995Z,5.66
2023-12-29T05:18:45.459Z,5.74
2023-12-29T05:21:19.791Z,5.83
2023-12-29T05:23:49.022Z,5.94
2023-12-29T05:26:17.183Z,6.03
2023-12-29T05:28:45.360Z,6.10
2023-12-29T05:31:13.905Z,6.17
2023-12-29T05:33:42.172Z,6.21
2023-12-29T05:36:11.210Z,6.28
2023-12-29T05:38:39.870Z,6.31
2023-12-29T05:41:08.224Z,6.34
2023-12-29T05:43:36.307Z,6.38
2023-12-29T05:46:04.893Z,6.40
2023-12-29T05:48:33.215Z,6.44
2023-12-29T05:51:10.493Z,6.49
2023-12-29T05:53:38.667Z,6.52
2023-12-29T05:56:06.876Z,6.55
2023-12-29T05:58:34.943Z,6.64
2023-12-29T06:01:03.328Z,6.68
2023-12-29T06:03:31.546Z,6.72
2023-12-29T06:05:59.655Z,6.77
2023-12-29T06:08:27.758Z,6.80
2023-12-29T06:10:55.834Z,6.84
2023-12-29T06:13:24.425Z,6.89
2023-12-29T06:15:52.626Z,6.96
2023-12-29T06:18:20.814Z,7.00
2023-12-29T06:20:49.110Z,7.05
2023-12-29T06:23:18.424Z,7.11
2023-12-29T06:25:46.420Z,7.12
2023-12-29T06:28:14.589Z,7.12
2023-12-29T06:30:42.860Z,7.08
2023-12-29T06:33:11.791Z,7.03
2023-12-29T06:35:40.538Z,6.98
2023-12-29T06:38:08.796Z,6.98
2023-12-29T06:40:36.966Z,6.98
2023-12-29T06:43:05.436Z,6.98
2023-12-29T06:45:33.525Z,6.95
2023-12-29T06:48:01.967Z,6.95
2023-12-29T06:50:30.310Z,6.91
2023-12-29T06:52:58.375Z,6.85
2023-12-29T06:55:26.853Z,6.83
2023-12-29T06:57:55.006Z,6.81
2023-12-29T07:00:23.256Z,6.81
2023-12-29T07:02:51.494Z,6.80
2023-12-29T07:05:19.662Z,6.81
2023-12-29T07:07:48.013Z,6.80
2023-12-29T07:10:16.300Z,6.75
2023-12-29T07:12:44.662Z,6.73
2023-12-29T07:15:15.268Z,6.73
2023-12-29T07:17:43.421Z,6.74
2023-12-29T07:20:12.531Z,6.76
2023-12-29T07:22:40.565Z,6.78
2023-12-29T07:25:08.770Z,6.79
2023-12-29T07:27:37.115Z,6.82
2023-12-29T07:30:05.997Z,6.84
2023-12-29T07:32:34.177Z,6.89
2023-12-29T07:35:02.928Z,6.93
2023-12-29T07:37:31.077Z,6.98
2023-12-29T07:39:59.185Z,7.03
2023-12-29T07:42:27.394Z,7.08
2023-12-29T07:44:57.514Z,7.13
2023-12-29T07:47:25.603Z,7.19
2023-12-29T07:49:53.754Z,7.25
2023-12-29T07:52:21.889Z,7.32
2023-12-29T07:54:50.566Z,7.37
2023-12-29T07:57:18.651Z,7.40
2023-12-29T07:59:46.728Z,7.45
2023-12-29T08:02:14.809Z,7.54
2023-12-29T08:04:43.049Z,7.62
2023-12-29T08:07:12.071Z,7.69
2023-12-29T08:09:40.447Z,7.73
2023-12-29T08:12:08.585Z,7.78
2023-12-29T08:14:36.745Z,7.83
2023-12-29T08:17:04.809Z,7.85
2023-12-29T08:19:33.208Z,7.88
2023-12-29T08:22:01.542Z,7.92
2023-12-29T08:24:29.801Z,7.95
2023-12-29T08:26:57.964Z,7.98
2023-12-29T08:29:26.942Z,7.99
2023-12-29T08:31:55.029Z,7.99
2023-12-29T08:34:24.925Z,7.96
2023-12-29T08:36:53.219Z,7.91
2023-12-29T08:39:21.373Z,7.87
2023-12-29T08:41:50.822Z,7.84
2023-12-29T08:44:19.210Z,7.79
2023-12-29T08:46:47.276Z,7.79
2023-12-29T08:49:15.583Z,7.81
2023-12-29T08:51:43.737Z,7.81
2023-12-29T08:54:12.046Z,7.83
2023-12-29T08:56:40.174Z,7.86
2023-12-29T08:59:08.342Z,7.88
2023-12-29T09:01:36.495Z,7.89
2023-12-29T09:04:04.997Z,7.94
2023-12-29T09:06:33.295Z,8.00
2023-12-29T09:09:01.495Z,8.06
2023-12-29T09:11:29.893Z,8.10
2023-12-29T09:13:58.026Z,8.13
2023-12-29T09:16:26.138Z,8.16
2023-12-29T09:18:54.210Z,8.19
2023-12-29T09:21:22.402Z,8.26
2023-12-29T09:23:51.682Z,8.34
2023-12-29T09:26:19.871Z,8.44
2023-12-29T09:28:48.660Z,8.56
2023-12-29T09:31:16.974Z,8.65
2023-12-29T09:33:45.249Z,8.74
2023-12-29T09:36:13.367Z,8.81
2023-12-29T09:38:42.891Z,8.88
2023-12-29T09:41:12.839Z,8.92
2023-12-29T09:43:40.895Z,8.95
2023-12-29T09:46:09.746Z,8.98
2023-12-29T09:48:38.258Z,9.02
2023-12-29T09:51:06.520Z,9.07
2023-12-29T09:53:35.776Z,9.10
2023-12-29T09:56:04.679Z,9.10
2023-12-29T09:58:32.749Z,9.11
2023-12-29T10:01:00.919Z,9.15
2023-12-29T10:03:29.026Z,9.20
2023-12-29T10:05:58.145Z,9.25
2023-12-29T10:08:27.123Z,9.29
2023-12-29T10:10:56.844Z,9.34
2023-12-29T10:13:25.096Z,9.43
2023-12-29T10:16:00.071Z,9.52
2023-12-29T10:18:32.195Z,9.58
2023-12-29T10:21:04.424Z,9.61
2023-12-29T10:23:45.227Z,9.68
2023-12-29T10:26:14.574Z,9.76
2023-12-29T10:28:42.602Z,9.76
2023-12-29T10:31:11.326Z,9.72
2023-12-29T10:33:39.847Z,9.72
2023-12-29T10:36:08.475Z,9.77
2023-12-29T10:38:41.080Z,9.82
2023-12-29T10:41:16.487Z,9.84
2023-12-29T10:43:45.911Z,9.84
2023-12-29T10:46:14.451Z,9.84
2023-12-29T10:48:42.661Z,9.84
2023-12-29T10:51:10.815Z,9.86
2023-12-29T10:53:41.556Z,9.90
2023-12-29T10:56:29.563Z,9.97
2023-12-29T10:59:04.879Z,10.03
2023-12-29T11:01:36.968Z,10.05
2023-12-29T11:04:06.686Z,10.07
2023-12-29T11:06:42.557Z,10.11
2023-12-29T11:09:11.898Z,10.15
2023-12-29T11:11:40.236Z,10.21
2023-12-29T11:14:10.096Z,10.27
2023-12-29T11:16:38.632Z,10.31
2023-12-29T11:19:07.568Z,10.33
2023-12-29T11:21:35.823Z,10.35
2023-12-29T11:24:04.053Z,10.39
2023-12-29T11:26:32.156Z,10.44
2023-12-29T11:29:00.338Z,10.46
2023-12-29T11:31:28.482Z,10.46
2023-12-29T11:34:04.365Z,10.46
2023-12-29T11:36:34.695Z,10.42
2023-12-29T11:39:08.066Z,10.38
2023-12-29T11:41:43.668Z,10.34
2023-12-29T11:44:12.483Z,10.28
2023-12-29T11:46:44.431Z,10.25
2023-12-29T11:49:12.895Z,10.23
2023-12-29T11:51:41.650Z,10.24
2023-12-29T11:54:10.229Z,10.26
2023-12-29T11:56:41.709Z,10.26
2023-12-29T11:59:13.954Z,10.26
2023-12-29T12:01:42.280Z,10.25
2023-12-29T12:04:46.923Z,10.28
2023-12-29T12:07:18.854Z,10.29
2023-12-29T12:09:50.603Z,10.27
2023-12-29T12:12:44.298Z,10.25
2023-12-29T12:15:32.600Z,10.24
2023-12-29T12:18:01.443Z,10.24
2023-12-29T12:20:29.863Z,10.22
2023-12-29T12:23:02.213Z,10.21
2023-12-29T12:25:31.829Z,10.21
2023-12-29T12:28:00.079Z,10.22
2023-12-29T12:30:28.418Z,10.24
2023-12-29T12:33:00.498Z,10.29
2023-12-29T12:35:29.059Z,10.35
2023-12-29T12:38:13.186Z,10.43
2023-12-29T12:40:41.516Z,10.49
2023-12-29T12:43:09.969Z,10.52
2023-12-29T12:46:05.601Z,10.54
2023-12-29T12:48:47.214Z,10.53
2023-12-29T12:51:15.711Z,10.50
2023-12-29T12:53:45.552Z,10.49
2023-12-29T12:56:13.685Z,10.48
2023-12-29T12:58:41.838Z,10.48
2023-12-29T13:01:10.129Z,10.49
2023-12-29T13:03:40.152Z,10.51
2023-12-29T13:06:08.477Z,10.54
2023-12-29T13:08:40.790Z,10.55
2023-12-29T13:11:14.193Z,10.57
2023-12-29T13:13:46.304Z,10.57
2023-12-29T13:16:15.580Z,10.58
2023-12-29T13:18:44.127Z,10.57
2023-12-29T13:21:12.342Z,10.56
2023-12-29T13:23:40.504Z,10.55
2023-12-29T13:26:10.129Z,10.57
2023-12-29T13:28:40.000Z,10.56
2023-12-29T13:31:09.514Z,10.55
2023-12-29T13:33:46.337Z,10.55
2023-12-29T13:36:25.260Z,10.51
2023-12-29T13:39:00.497Z,10.47
2023-12-29T13:41:29.320Z,10.45
2023-12-29T13:43:57.363Z,10.43
2023-12-29T13:46:25.589Z,10.40
2023-12-29T13:48:55.584Z,10.40
2023-12-29T13:53:03.440Z,10.42
2023-12-29T13:55:32.392Z,10.41
2023-12-29T13:58:00.639Z,10.41
2023-12-29T14:00:30.205Z,10.41
2023-12-29T14:03:07.723Z,10.38
2023-12-29T14:05:40.774Z,10.37
2023-12-29T14:08:28.167Z,10.37
2023-12-29T14:10:56.500Z,10.36
2023-12-29T14:13:24.722Z,10.34
2023-12-29T14:15:53.413Z,10.31
2023-12-29T14:18:49.271Z,10.30
2023-12-29T14:21:33.023Z,10.34
2023-12-29T14:24:02.203Z,10.34
2023-12-29T14:26:31.220Z,10.34
2023-12-29T14:29:03.103Z,10.35
2023-12-29T14:31:33.073Z,10.35
2023-12-29T14:34:01.251Z,10.34
2023-12-29T14:36:29.365Z,10.34
2023-12-29T14:38:57.455Z,10.36
2023-12-29T14:41:25.971Z,10.36
2023-12-29T14:43:54.247Z,10.37
2023-12-29T14:46:23.569Z,10.38
2023-12-29T14:48:51.859Z,10.36
2023-12-29T14:51:19.944Z,10.34
2023-12-29T14:53:48.834Z,10.29
2023-12-29T14:56:17.256Z,10.23
2023-12-29T14:58:45.449Z,10.18
2023-12-29T15:01:13.660Z,10.15
2023-12-29T15:03:41.908Z,10.13
2023-12-29T15:06:10.037Z,10.11
2023-12-29T15:08:38.891Z,10.10
2023-12-29T15:11:08.053Z,10.12
2023-12-29T15:13:36.422Z,10.16
2023-12-29T15:16:05.494Z,10.19
2023-12-29T15:18:33.695Z,10.16
2023-12-29T15:21:03.116Z,10.16
2023-12-29T15:23:31.188Z,10.15
2023-12-29T15:25:59.291Z,10.12
2023-12-29T15:28:27.557Z,10.08
2023-12-29T15:30:55.924Z,10.06
2023-12-29T15:33:25.405Z,10.04
2023-12-29T15:35:53.956Z,10.01
2023-12-29T15:38:22.024Z,9.95
2023-12-29T15:40:50.115Z,9.90
2023-12-29T15:43:18.255Z,9.82
2023-12-29T15:45:46.429Z,9.74
2023-12-29T15:48:14.570Z,9.64
2023-12-29T15:50:43.188Z,9.57
2023-12-29T15:53:11.387Z,9.51
2023-12-29T15:55:39.461Z,9.46
2023-12-29T15:58:08.148Z,9.42
2023-12-29T16:00:36.413Z,9.33
2023-12-29T16:03:05.364Z,9.28
2023-12-29T16:05:33.456Z,9.22
2023-12-29T16:08:02.336Z,9.20
2023-12-29T16:10:31.107Z,9.18
2023-12-29T16:12:59.315Z,9.15
2023-12-29T16:15:27.393Z,9.12
2023-12-29T16:17:55.911Z,9.08
2023-12-29T16:20:23.946Z,9.06
2023-12-29T16:22:52.107Z,9.06
2023-12-29T16:25:20.700Z,9.08
2023-12-29T16:27:48.950Z,9.07
2023-12-29T16:30:17.110Z,9.07
2023-12-29T16:32:45.259Z,9.06
2023-12-29T16:35:13.417Z,9.07
2023-12-29T16:37:41.523Z,9.08
2023-12-29T16:40:11.116Z,9.09
2023-12-29T16:42:39.530Z,9.13
2023-12-29T16:45:08.199Z,9.20
2023-12-29T16:47:36.313Z,9.24
2023-12-29T16:50:05.385Z,9.27
2023-12-29T16:52:33.592Z,9.25
2023-12-29T16:55:02.512Z,9.26
2023-12-29T16:57:31.142Z,9.25
2023-12-29T16:59:59.324Z,9.25
2023-12-29T17:02:27.440Z,9.26
2023-12-29T17:04:56.054Z,9.26
2023-12-29T17:07:24.175Z,9.31
2023-12-29T17:09:52.413Z,9.34
2023-12-29T17:12:20.530Z,9.35
2023-12-29T17:14:48.613Z,9.35
2023-12-29T17:17:16.791Z,9.37
2023-12-29T17:19:45.300Z,9.37
2023-12-29T17:22:13.542Z,9.37
2023-12-29T17:24:42.271Z,9.39
2023-12-29T17:27:10.348Z,9.44
2023-12-29T17:29:40.553Z,9.47
2023-12-29T17:32:09.441Z,9.49
2023-12-29T17:34:37.681Z,9.51
2023-12-29T17:37:05.985Z,9.56
2023-12-29T17:39:34.104Z,9.60
2023-12-29T17:42:02.144Z,9.62
2023-12-29T17:44:30.182Z,9.63
2023-12-29T17:46:58.303Z,9.69
2023-12-29T17:49:29.888Z,9.71
2023-12-29T17:51:59.487Z,9.70
2023-12-29T17:54:28.043Z,9.69
2023-12-29T17:56:56.098Z,9.67
2023-12-29T17:59:24.310Z,9.68
2023-12-29T18:01:53.057Z,9.71
2023-12-29T18:04:21.417Z,9.70
2023-12-29T18:06:56.555Z,9.68
2023-12-29T18:09:31.454Z,9.64
2023-12-29T18:11:59.689Z,9.64
2023-12-29T18:14:27.979Z,9.62
2023-12-29T18:16:56.530Z,9.58
2023-12-29T18:19:24.851Z,9.57
2023-12-29T18:21:53.584Z,9.56
2023-12-29T18:24:21.689Z,9.56
2023-12-29T18:26:50.272Z,9.54
2023-12-29T18:29:19.600Z,9.53
2023-12-29T18:31:47.715Z,9.53
2023-12-29T18:34:35.681Z,9.51
2023-12-29T18:37:04.132Z,9.48
2023-12-29T18:39:32.376Z,9.46
2023-12-29T18:42:00.817Z,9.45
2023-12-29T18:44:31.154Z,9.46
2023-12-29T18:46:59.758Z,9.46
2023-12-29T18:49:28.035Z,9.45
2023-12-29T18:51:56.475Z,9.45
2023-12-29T18:54:25.079Z,9.44
2023-12-29T18:56:53.185Z,9.42
2023-12-29T18:59:21.512Z,9.40
2023-12-29T19:01:51.913Z,9.39
2023-12-29T19:04:20.970Z,9.41
2023-12-29T19:06:49.172Z,9.41
2023-12-29T19:09:17.411Z,9.38
2023-12-29T19:11:45.615Z,9.35
2023-12-29T19:14:14.829Z,9.29
2023-12-29T19:16:43.041Z,9.21
2023-12-29T19:19:11.204Z,9.12
2023-12-29T19:21:49.853Z,9.05
2023-12-29T19:24:22.250Z,9.00
2023-12-29T19:26:50.874Z,8.97
2023-12-29T19:29:18.974Z,8.94
2023-12-29T19:31:47.173Z,8.90
2023-12-29T19:34:16.735Z,8.88
2023-12-29T19:36:44.965Z,8.88
2023-12-29T19:39:13.058Z,8.89
2023-12-29T19:41:41.187Z,8.90
2023-12-29T19:44:09.275Z,8.91
2023-12-29T19:46:43.572Z,8.92
2023-12-29T19:49:11.962Z,8.95
2023-12-29T19:51:40.227Z,8.97
2023-12-29T19:54:08.964Z,8.98
2023-12-29T19:56:37.037Z,9.00
2023-12-29T19:59:05.182Z,9.03
2023-12-29T20:01:41.023Z,9.04
2023-12-29T20:04:13.388Z,9.08
2023-12-29T20:06:41.667Z,9.15
2023-12-29T20:09:09.822Z,9.22
2023-12-29T20:11:41.445Z,9.26
2023-12-29T20:14:13.565Z,9.27
2023-12-29T20:16:41.827Z,9.29
2023-12-29T20:19:12.666Z,9.34
2023-12-29T20:21:40.937Z,9.35
2023-12-29T20:24:11.169Z,9.38
2023-12-29T20:26:40.140Z,9.38
2023-12-29T20:29:08.834Z,9.41
2023-12-29T20:31:37.194Z,9.45
2023-12-29T20:34:05.765Z,9.48
2023-12-29T20:36:34.130Z,9.49
2023-12-29T20:39:03.813Z,9.53
2023-12-29T20:41:32.453Z,9.57
2023-12-29T20:44:00.602Z,9.59
2023-12-29T20:46:28.870Z,9.62
2023-12-29T20:48:57.136Z,9.66
2023-12-29T20:51:25.851Z,9.69
2023-12-29T20:53:53.956Z,9.73
2023-12-29T20:56:22.746Z,9.72
2023-12-29T20:58:54.424Z,9.74
2023-12-29T21:01:24.815Z,9.72
2023-12-29T21:03:53.211Z,9.71
2023-12-29T21:06:21.602Z,9.75
2023-12-29T21:08:50.615Z,9.78
2023-12-29T21:11:19.754Z,9.79
2023-12-29T21:13:48.153Z,9.80
2023-12-29T21:16:20.109Z,9.80
2023-12-29T21:18:50.986Z,9.82
2023-12-29T21:21:19.439Z,9.83
2023-12-29T21:23:47.629Z,9.85
2023-12-29T21:26:22.375Z,9.87
2023-12-29T21:28:50.903Z,9.87
2023-12-29T21:31:19.696Z,9.85
2023-12-29T21:33:48.526Z,9.84
2023-12-29T21:36:23.897Z,9.83
2023-12-29T21:38:52.961Z,9.79
2023-12-29T21:41:21.260Z,9.77
2023-12-29T21:43:49.911Z,9.76
2023-12-29T21:46:18.128Z,9.71
2023-12-29T21:48:46.692Z,9.69
2023-12-29T21:51:15.107Z,9.64
2023-12-29T21:53:43.995Z,9.60
2023-12-29T21:56:12.115Z,9.57
2023-12-29T21:58:40.338Z,9.52
2023-12-29T22:01:40.586Z,9.48
2023-12-29T22:04:10.341Z,9.47
2023-12-29T22:06:39.654Z,9.44
2023-12-29T22:09:07.887Z,9.42
2023-12-29T22:11:36.051Z,9.39
2023-12-29T22:14:05.906Z,9.35
2023-12-29T22:16:34.032Z,9.33
2023-12-29T22:19:02.770Z,9.32
2023-12-29T22:21:30.932Z,9.29
2023-12-29T22:23:59.415Z,9.29
2023-12-29T22:26:27.648Z,9.30
2023-12-29T22:28:55.714Z,9.28
2023-12-29T22:31:23.849Z,9.29
2023-12-29T22:33:52.219Z,9.28
2023-12-29T22:36:21.166Z,9.27
2023-12-29T22:38:50.015Z,9.25
2023-12-29T22:41:19.721Z,9.27
2023-12-29T22:43:48.047Z,9.25
2023-12-29T22:46:20.775Z,9.26
2023-12-29T22:48:51.555Z,9.27
2023-12-29T22:51:19.673Z,9.33
2023-12-29T22:53:47.678Z,9.35
2023-12-29T22:56:15.768Z,9.35
2023-12-29T22:58:45.205Z,9.37
2023-12-29T23:01:13.527Z,9.43
2023-12-29T23:03:41.825Z,9.43
2023-12-29T23:06:10.318Z,9.43
2023-12-29T23:08:39.375Z,9.42
2023-12-29T23:11:09.711Z,9.41
2023-12-29T23:13:38.305Z,9.39
2023-12-29T23:16:06.760Z,9.41
2023-12-29T23:18:34.985Z,9.41
2023-12-29T23:21:03.173Z,9.38
2023-12-29T23:23:31.277Z,9.33
2023-12-29T23:26:02.652Z,9.25
2023-12-29T23:28:31.394Z,9.21
2023-12-29T23:31:00.206Z,9.18
2023-12-29T23:33:28.525Z,9.14
2023-12-29T23:35:57.685Z,9.13
2023-12-29T23:38:25.795Z,9.12
2023-12-29T23:40:53.959Z,9.08
2023-12-29T23:43:22.065Z,9.06
2023-12-29T23:45:50.749Z,9.01
2023-12-29T23:48:20.545Z,9.00
2023-12-29T23:50:49.107Z,8.97
2023-12-29T23:53:17.238Z,8.96
2023-12-29T23:55:45.428Z,8.96
2023-12-29T23:58:14.040Z,8.93
